Buena, Washington
Current Conditions -  °F | °C
As of 11:53 AM on Friday 19 Dec 2014 (Local Time) from KYKM Reporting Station
Haze Haze  
Wind Chill: 39°   Ceiling: 700
Heat Index: 42°   Visibility: 6mi
Dew Point: 37°   Wind: 5mph
Humidity: 82%   Direction: 340°NNW
Pressure: 29.94"   Gusts: NA
Location:  46.43°N, 120.32°W
Report Text: KYKM 191953Z 34004KT 6SM HZ OVC007 06/03 A2994 RMK AO2 SLP146 T00560028
Loading
Personal Weather Stations






























Interactive Weather Map New forecast layout! Learn more

10-Day Weather Forecast

Advertisements
Track Severe Weather on mobile